Alderpoint, California
Current Conditions -  °F | °C
As of 2:10 PM on Thursday 23 Oct 2014 (Local Time) from KFOT Reporting Station
Broken Clouds Broken Clouds  
Wind Chill: 59°   Ceiling: 400
Heat Index: 59°   Visibility: 9mi
Dew Point: 59°   Wind: 12mph
Humidity: 100%   Direction: 20°NNE
Pressure: 30.02"   Gusts: NA
Location:  40.18°N, 123.61°W
Report Text: KFOT 232110Z AUTO 02010KT 9SM BKN004 BKN022 BKN070 15/15 A3002 RMK AO1
Loading
Personal Weather Stations






























Interactive Weather Map
Tropical Storm Tracking
New forecast layout! Learn more

10-Day Weather Forecast

Advertisements
Track Severe Weather on mobile